CMB weather

Bandaranaike International Colombo Airport
Colombo, Western Province, Sri Lanka

Public forecast

Using degrees Celsius for public forecast. Weather courtesy of forecast.io.

METAR (pilot weather report)

Retrieved 2019/01/23 03:10 UTC (43 minutes ago):

VCBI 230310Z 03010KT 8000 FEW017 25/22 Q1013 NOSIG

TAF (pilot weather forecast)

Forecast is more than 12 hours old.

Retrieved 2019/01/22 00:00 UTC (1 day ago):

TAF VCBI 222300Z 2300/2406 03010KT 9000 FEW018 TX31/2308Z TN22/2400Z TEMPO 2300/2302 6000 BECMG 2303/2305 9999 BECMG 2305/2307 34008KT BECMG 2313/2315 03008KT